Forside
METAR-TAF:

METAR-TAF

Lufthavne :

Lewistown Municipal Airport

Lewistown, Montana, USA

Breddekreds: 47-02-57N, længdekreds: 109-27-59W, højde: 1270 m

Aktuelle vejr

Denne rapport blev lavet for 37 minutter siden, kl. 15:54 UTC
Vind stille
Temperatur 9°C
Fugtighed 49%
Tryk 1017 hPa
Sigt: 16.1 km
skyfri

METAR: KLWT 231554Z AUTO 00000KT 10SM CLR 09/M01 A3002 RMK AO2 SLP166 T00941006

Tid: 10:31 (16:31 UTC)

Vejrudsigter

Denne rapport blev lavet for 4 timer og 46 minutter siden, kl. 11:45 UTC
Foreløbig gælder fra 23 på 12 UTC til 24 på 12 UTC
Vind 5 kt fra sydøst
Sigt: 10 km
skyfri
Fra 23 på 1600 UTC
Vind 9 kt fra østsydøst
Sigt: 10 km
Nogle få skyer i en højde af 15000 ft
Fra 24 på 0600 UTC
Vind 10 kt fra sydvest
Sigt: 10 km
Spredte skyer i en højde af 15000 ft

TAF: KLWT 231145Z 2312/2412 14005KT P6SM SKC FM231600 11009KT P6SM FEW150 FM240600 22010KT P6SM SCT150

Vejrobservationer og prognoser fra mere end 4000 lufthavne (METAR og TAF).

De gule og røde prikker repræsenterer de meteorologiske stationer.

Flyt musen over at se navnet på stationen.

Så klik over at se vejr observationer og prognoser.

At skifte det kort: Klik på de grønne knapper med et sort kors for at zoome ind; på den grønne knap med en bindestreg for at zoome ud; eller på de grønne pile for tilstødende kort.


METAR-TAF: